Strong, Maine
Current Conditions -  °F | °C
As of 8:15 PM on Friday 28 Nov 2014 (Local Time) from KWVL Reporting Station
Scattered Clouds Scattered Clouds  
Wind Chill: 23°   Ceiling: Unl
Heat Index: 23°   Visibility: 10mi
Dew Point: 12°   Wind: 3mph
Humidity: 63%   Direction: 320°NW
Pressure: 30.07"   Gusts: NA
Location:  44.81°N, 70.22°W
Report Text: KWVL 290115Z 32003KT 10SM FEW036 SCT044 M05/M11 A3007 RMK AO1
Loading
Personal Weather Stations






























Interactive Weather Map New forecast layout! Learn more

10-Day Weather Forecast

Advertisements
Track Severe Weather on mobile